aviador You're here:

LFPV Decoded Metar

VILLACOUBLAY in FRANCE
Report Time2018-05-27 00:30:00
UTC Time2018-05-27 00:55:14
Flight Rules vfr VFR
Wind110° at 05 kt
W.Decomp.*RWY 09: 4.7 kt HW 1.8 kt RCW
W.Rank110° ranks 31
Current wind is below 110° avg. (5.0)
Visibility9999 m
Phenomena:N/A
Clouds:N/A
Expected CloudBase > 1,600 ft AGL from Temp-Dew spread
CeilingNone
Temp20°C (ISA +6)
Dew Point16°C (78% RH)
QNH1014 hPa
Density Alt1,519 ft
Elevation587 ft
Report Wrong Elevation
Raw Report
LFPV 270030Z AUTO 11005KT 080V140 CAVOK 20/16 Q1014 NOSIG=

Extra information for LFPV:More info

Metar Taf Metar & Taf Last 4 Metars F.Rules Stats Wind Profile Meteogram Temp Stats Airport Information Weather charts Add Link Nearby VenuesMetar ALERT Operation Metar Decoded Social comments